Time;durP1;ratioP1;P1;durP2;ratioP2;P2;SDS_P1;SDS_P2;PMS_P1;PMS_P2;Temp;Humidity;BMP_temperature;BMP_pressure;BME280_temperature;BME280_humidity;BME280_pressure;Samples;Min_cycle;Max_cycle;Signal;HPM_P1;HPM_P2
2023/03/07 00:01:30;;;;;;;30.07;17.70;;;0.00;99.90;;;-0.34;74.61;98934.50;6277520;22;20559;-72
2023/03/07 00:03:59;;;;;;;32.27;17.20;;;0.00;99.90;;;-0.33;73.83;98933.66;6277048;22;20215;-72
2023/03/07 00:06:30;;;;;;;31.40;19.00;;;0.00;99.90;;;-0.35;74.25;98937.88;6277366;22;20211;-73
2023/03/07 00:09:01;;;;;;;30.20;19.30;;;0.00;99.90;;;-0.32;74.17;98931.16;6277192;22;20193;-75
2023/03/07 00:11:30;;;;;;;29.53;19.10;;;0.00;99.90;;;-0.31;74.25;98937.06;6277437;22;20500;-74
2023/03/07 00:13:58;;;;;;;34.00;19.97;;;-0.10;99.90;;;-0.31;74.50;98937.06;6276907;22;20181;-73
2023/03/07 00:16:28;;;;;;;31.80;19.07;;;0.00;99.90;;;-0.29;74.79;98938.81;6277352;22;20548;-73
2023/03/07 00:18:57;;;;;;;31.13;18.50;;;0.00;99.90;;;-0.28;74.87;98937.13;6276638;22;20251;-73
2023/03/07 00:21:30;;;;;;;28.03;17.23;;;0.00;99.90;;;-0.27;74.98;98933.75;6277250;22;20513;-72
2023/03/07 00:23:58;;;;;;;30.67;19.17;;;0.00;99.90;;;-0.25;74.79;98940.56;6277442;22;20168;-74
2023/03/07 00:26:28;;;;;;;32.57;19.13;;;0.00;99.90;;;-0.23;75.02;98939.72;6276575;22;20172;-72
2023/03/07 00:28:56;;;;;;;26.80;16.87;;;0.00;99.90;;;-0.23;74.37;98939.72;6277264;22;20197;-73
2023/03/07 00:31:25;;;;;;;24.50;15.53;;;0.10;99.90;;;-0.24;74.25;98941.41;6277050;22;20177;-72
2023/03/07 00:33:54;;;;;;;23.90;15.57;;;0.10;99.90;;;-0.28;73.79;98937.97;6276671;22;20188;-71
2023/03/07 00:36:23;;;;;;;23.70;14.57;;;0.00;99.90;;;-0.27;73.40;98942.19;6277474;22;20256;-73
2023/03/07 00:38:53;;;;;;;23.97;14.93;;;0.00;99.90;;;-0.31;72.69;98932.00;6277609;22;20177;-73
2023/03/07 00:41:24;;;;;;;20.80;14.33;;;0.00;99.90;;;-0.33;72.81;98929.47;6277635;22;20562;-73
2023/03/07 00:43:54;;;;;;;23.80;15.20;;;0.00;99.90;;;-0.31;72.70;98926.94;6276715;22;20161;-73
2023/03/07 00:46:25;;;;;;;26.43;15.83;;;0.00;99.90;;;-0.30;72.62;98928.66;6276439;22;20176;-72
2023/03/07 00:48:55;;;;;;;26.87;16.03;;;0.00;99.90;;;-0.27;72.96;98926.16;6276059;22;20552;-74
2023/03/07 00:51:24;;;;;;;29.63;16.90;;;0.00;99.90;;;-0.25;73.09;98927.06;6276275;22;20208;-74
2023/03/07 00:53:52;;;;;;;26.00;15.47;;;0.00;99.90;;;-0.25;73.15;98932.97;6276788;22;20181;-73
2023/03/07 00:56:24;;;;;;;23.43;14.70;;;0.00;99.90;;;-0.23;72.98;98935.50;6250274;22;20173;-73
2023/03/07 00:58:52;;;;;;;24.57;14.83;;;0.10;99.90;;;-0.18;72.83;98936.44;6276479;22;20242;-74
2023/03/07 01:01:24;;;;;;;23.07;13.50;;;0.10;99.90;;;-0.17;72.57;98933.06;6276912;22;20172;-72
2023/03/07 01:03:54;;;;;;;21.90;13.77;;;0.10;99.90;;;-0.22;72.30;98924.56;6276874;22;20172;-74
2023/03/07 01:06:26;;;;;;;21.57;12.77;;;0.00;99.90;;;-0.23;71.93;98927.06;6276450;22;20207;-73
2023/03/07 01:08:57;;;;;;;24.10;14.80;;;0.10;99.90;;;-0.25;71.78;98925.38;6276176;22;20191;-73
2023/03/07 01:11:27;;;;;;;23.47;14.33;;;0.00;99.90;;;-0.25;71.88;98921.97;6276719;22;20165;-74
2023/03/07 01:13:56;;;;;;;22.23;14.00;;;0.00;99.90;;;-0.25;71.95;98932.09;6276755;22;20181;-72
2023/03/07 01:16:27;;;;;;;19.53;12.73;;;0.00;99.90;;;-0.26;72.22;98925.31;6277080;22;20218;-73
2023/03/07 01:19:01;;;;;;;21.17;13.13;;;0.00;99.90;;;-0.28;71.89;98927.84;6276602;22;20192;-73
2023/03/07 01:21:32;;;;;;;21.13;13.07;;;0.00;99.90;;;-0.29;71.21;98928.69;6276871;22;20242;-77
2023/03/07 01:24:01;;;;;;;18.50;11.87;;;-0.10;99.90;;;-0.33;71.46;98923.53;6276559;22;20167;-72
2023/03/07 01:26:32;;;;;;;20.80;11.97;;;-0.10;99.90;;;-0.36;71.24;98921.00;6249890;22;20180;-72
2023/03/07 01:29:02;;;;;;;19.63;10.93;;;-0.10;99.90;;;-0.39;71.22;98916.72;6277078;22;20204;-72
2023/03/07 01:31:31;;;;;;;17.90;11.33;;;-0.20;99.90;;;-0.44;70.79;98922.53;6276482;22;20172;-72
2023/03/07 01:34:02;;;;;;;18.20;11.73;;;-0.20;99.90;;;-0.47;70.60;98912.41;6276604;22;20215;-74
2023/03/07 01:36:33;;;;;;;18.10;11.10;;;-0.30;99.90;;;-0.51;70.70;98927.53;6276849;22;20230;-73
2023/03/07 01:39:06;;;;;;;18.23;12.00;;;-0.30;99.90;;;-0.59;70.85;98916.44;6276889;22;20160;-73
2023/03/07 01:41:37;;;;;;;20.23;11.33;;;-0.40;99.90;;;-0.65;71.22;98920.56;6276917;22;20598;-74
2023/03/07 01:44:15;;;;;;;18.80;12.07;;;-0.50;99.90;;;-0.69;71.21;98918.81;6276704;22;20157;-74
2023/03/07 01:46:48;;;;;;;20.70;11.63;;;-0.50;99.90;;;-0.76;71.14;98918.72;6276442;22;20230;-73
2023/03/07 01:49:25;;;;;;;20.50;11.87;;;-0.60;99.90;;;-0.79;71.00;98910.22;6276194;22;20196;-72
2023/03/07 01:52:01;;;;;;;18.77;12.07;;;-0.60;99.90;;;-0.84;71.21;98912.69;6276536;22;20305;-73
2023/03/07 01:54:32;;;;;;;18.23;11.70;;;-0.70;99.90;;;-0.86;71.63;98916.00;6250360;22;20172;-74
2023/03/07 01:57:04;;;;;;;19.53;12.07;;;-0.70;99.90;;;-0.92;72.03;98911.72;6276930;22;20169;-73
2023/03/07 01:59:35;;;;;;;19.60;11.90;;;-0.80;99.90;;;-0.96;72.03;98912.47;6278200;22;20176;-71
2023/03/07 02:02:10;;;;;;;20.90;12.47;;;-0.80;99.90;;;-1.02;71.79;98910.72;6277919;22;20161;-74
2023/03/07 02:04:48;;;;;;;19.47;11.47;;;-0.80;99.90;;;-1.05;72.25;98907.28;6276896;22;20210;-73
2023/03/07 02:07:20;;;;;;;16.93;11.60;;;-0.90;99.90;;;-1.06;72.13;98910.66;6277132;22;20161;-73
2023/03/07 02:09:51;;;;;;;19.87;11.93;;;-0.90;99.90;;;-1.08;72.37;98913.13;6277445;22;20181;-73
2023/03/07 02:12:20;;;;;;;19.33;11.27;;;-0.90;99.90;;;-1.11;72.35;98915.59;6277018;22;20173;-72
2023/03/07 02:14:51;;;;;;;20.17;12.40;;;-0.90;99.90;;;-1.13;72.57;98918.94;6276952;22;20181;-73
2023/03/07 02:17:20;;;;;;;20.30;12.80;;;-0.90;99.90;;;-1.16;72.82;98917.22;6277567;22;20203;-73
2023/03/07 02:20:04;;;;;;;21.37;12.93;;;-1.00;99.90;;;-1.17;72.60;98919.72;6277590;22;20646;-73
2023/03/07 02:22:33;;;;;;;19.83;12.57;;;-1.00;99.90;;;-1.20;72.79;98920.53;6277275;22;20209;-72
2023/03/07 02:25:07;;;;;;;19.70;12.53;;;-1.10;99.90;;;-1.22;73.42;98919.63;6276558;22;20177;-72
2023/03/07 02:27:38;;;;;;;21.07;12.53;;;-1.10;99.90;;;-1.23;73.44;98915.41;6277029;22;20164;-73
2023/03/07 02:30:10;;;;;;;19.20;11.60;;;-1.10;99.90;;;-1.26;73.30;98910.28;6276956;22;20512;-72
2023/03/07 02:32:38;;;;;;;18.87;12.23;;;-1.10;99.90;;;-1.28;73.21;98919.53;6277662;22;20230;-73
2023/03/07 02:35:15;;;;;;;18.03;11.50;;;-1.10;99.90;;;-1.32;73.44;98917.78;6277204;22;20630;-72
2023/03/07 02:37:47;;;;;;;20.80;11.73;;;-1.10;99.90;;;-1.36;73.16;98914.34;6276730;22;20173;-73
2023/03/07 02:40:18;;;;;;;18.60;11.77;;;-1.20;99.90;;;-1.38;73.78;98917.66;6276537;22;20169;-71
2023/03/07 02:42:50;;;;;;;18.53;10.93;;;-1.20;99.90;;;-1.41;73.43;98910.88;6276958;22;20210;-73
2023/03/07 02:45:20;;;;;;;17.33;11.47;;;-1.30;99.90;;;-1.42;73.61;98916.75;6276673;22;20173;-74
2023/03/07 02:47:48;;;;;;;21.27;12.17;;;-1.20;99.90;;;-1.42;73.94;98913.38;6276635;22;20663;-73
2023/03/07 02:50:17;;;;;;;21.60;12.80;;;-1.30;99.90;;;-1.45;73.79;98911.66;6275561;22;20201;-74
2023/03/07 02:52:45;;;;;;;22.97;14.80;;;-1.30;99.90;;;-1.44;73.96;98910.81;6276258;22;20498;-72
2023/03/07 02:55:15;;;;;;;27.77;16.30;;;-1.30;99.90;;;-1.48;74.05;98907.38;6275000;22;20230;-74
2023/03/07 02:57:43;;;;;;;27.03;16.10;;;-1.30;99.90;;;-1.51;74.17;98904.81;6275959;22;20238;-74
2023/03/07 03:00:14;;;;;;;31.43;16.60;;;-1.30;99.90;;;-1.52;74.81;98913.22;6275442;22;20169;-72
2023/03/07 03:02:42;;;;;;;28.83;17.63;;;-1.30;99.90;;;-1.53;74.80;98913.19;6276049;22;20161;-74
2023/03/07 03:05:11;;;;;;;29.67;18.77;;;-1.40;99.90;;;-1.56;74.92;98913.13;6275967;22;20209;-72
2023/03/07 03:07:39;;;;;;;37.80;20.57;;;-1.30;99.90;;;-1.61;75.39;98908.00;6276166;22;20176;-74
2023/03/07 03:10:09;;;;;;;35.47;19.57;;;-1.40;99.90;;;-1.65;75.52;98901.19;6277744;22;20246;-71
2023/03/07 03:12:37;;;;;;;38.03;20.93;;;-1.40;99.90;;;-1.69;76.38;98907.00;6278033;22;20180;-73
2023/03/07 03:15:08;;;;;;;37.03;20.23;;;-1.50;99.90;;;-1.72;76.41;98909.47;6277246;22;20177;-73
2023/03/07 03:17:38;;;;;;;38.53;21.17;;;-1.50;99.90;;;-1.72;76.49;98900.22;6277689;22;20165;-72
2023/03/07 03:20:10;;;;;;;33.97;22.13;;;-1.50;99.90;;;-1.75;76.53;98900.16;6277418;22;20172;-72
2023/03/07 03:22:39;;;;;;;41.20;21.40;;;-1.50;99.90;;;-1.78;76.69;98902.63;6277585;22;20636;-72
2023/03/07 03:25:11;;;;;;;37.40;20.37;;;-1.60;99.90;;;-1.78;77.16;98904.31;6277304;22;20246;-73
2023/03/07 03:27:40;;;;;;;34.47;21.47;;;-1.60;99.90;;;-1.77;77.25;98913.56;6277135;22;20231;-73
2023/03/07 03:30:13;;;;;;;44.70;22.13;;;-1.60;99.90;;;-1.80;77.19;98900.91;6277439;22;20304;-75
2023/03/07 03:32:43;;;;;;;41.67;23.20;;;-1.60;99.90;;;-1.81;76.78;98899.19;6277114;22;20160;-73
2023/03/07 03:35:12;;;;;;;40.73;22.63;;;-1.60;99.90;;;-1.83;77.51;98896.66;6277215;22;20218;-75
2023/03/07 03:37:40;;;;;;;41.93;23.67;;;-1.60;99.90;;;-1.86;77.54;98896.56;6277527;22;20226;-72
2023/03/07 03:40:16;;;;;;;42.03;22.37;;;-1.70;99.90;;;-1.85;77.87;98894.91;6277797;22;20558;-74
2023/03/07 03:42:45;;;;;;;42.30;23.60;;;-1.70;99.90;;;-1.89;77.28;98906.59;6277388;22;20160;-72
2023/03/07 03:45:14;;;;;;;48.87;24.63;;;-1.70;99.90;;;-1.93;77.28;98909.06;6277277;22;20177;-74
2023/03/07 03:47:44;;;;;;;41.50;23.37;;;-1.80;99.90;;;-1.97;77.70;98908.97;6277286;22;20174;-74
2023/03/07 03:50:12;;;;;;;44.07;23.53;;;-1.80;99.90;;;-1.97;78.30;98913.19;6277245;22;20197;-74
2023/03/07 03:52:43;;;;;;;47.63;25.30;;;-1.80;99.90;;;-1.99;77.98;98908.13;6277469;22;20181;-73
2023/03/07 03:55:12;;;;;;;40.60;22.70;;;-1.80;99.90;;;-1.98;78.51;98902.25;6250790;22;20179;-73
2023/03/07 03:57:42;;;;;;;47.90;23.83;;;-1.80;99.90;;;-2.02;79.35;98895.44;6277405;22;20630;-71
2023/03/07 04:00:15;;;;;;;45.53;23.40;;;-1.80;99.90;;;-2.06;79.40;98903.78;6277676;22;20169;-74
2023/03/07 04:02:45;;;;;;;43.30;22.73;;;-1.80;99.90;;;-2.10;79.18;98902.00;6277610;22;20211;-73
2023/03/07 04:05:14;;;;;;;41.50;23.13;;;-1.80;99.90;;;-2.13;79.05;98906.97;6276838;22;20673;-72
2023/03/07 04:07:42;;;;;;;39.50;22.30;;;-1.80;99.90;;;-2.15;79.18;98908.63;6276932;22;20168;-72
2023/03/07 04:10:11;;;;;;;44.83;24.10;;;-1.90;99.90;;;-2.15;79.32;98902.72;6277422;22;20177;-72
2023/03/07 04:12:40;;;;;;;49.57;24.97;;;-1.90;99.90;;;-2.16;79.80;98901.88;6277216;22;20222;-74
2023/03/07 04:15:11;;;;;;;53.23;26.47;;;-1.90;99.90;;;-2.14;79.41;98904.41;6277189;22;20173;-72
2023/03/07 04:17:39;;;;;;;48.60;24.57;;;-1.90;99.90;;;-2.13;79.57;98906.97;6277206;22;20177;-72
2023/03/07 04:20:16;;;;;;;50.23;24.43;;;-1.90;99.90;;;-2.12;79.82;98901.09;6276701;22;20222;-72
2023/03/07 04:22:44;;;;;;;45.33;24.07;;;-1.90;99.90;;;-2.13;79.46;98901.94;6276849;22;20245;-73
2023/03/07 04:25:13;;;;;;;46.40;22.47;;;-1.90;99.90;;;-2.11;79.32;98904.47;6276958;22;20222;-72
2023/03/07 04:27:41;;;;;;;39.90;20.67;;;-1.90;99.90;;;-2.15;79.12;98897.66;6277082;22;20622;-71
2023/03/07 04:30:11;;;;;;;43.70;22.27;;;-1.90;99.90;;;-2.21;79.24;98894.22;6276533;22;20197;-72
2023/03/07 04:32:41;;;;;;;46.97;23.07;;;-1.90;99.90;;;-2.22;79.82;98899.22;6277098;22;20173;-74
2023/03/07 04:35:11;;;;;;;40.20;21.27;;;-2.00;99.90;;;-2.24;80.14;98898.34;6276427;22;20169;-73
2023/03/07 04:37:40;;;;;;;41.73;22.17;;;-2.00;99.90;;;-2.26;80.38;98884.84;6276859;22;20618;-72
2023/03/07 04:40:10;;;;;;;44.40;24.50;;;-2.00;99.90;;;-2.27;79.90;98898.28;6276239;22;20561;-73
2023/03/07 04:42:38;;;;;;;45.73;23.40;;;-2.00;99.90;;;-2.29;80.64;98882.25;6276664;22;20173;-73
2023/03/07 04:45:09;;;;;;;42.20;20.60;;;-2.00;99.90;;;-2.30;80.26;98888.13;6276965;22;20172;-74
2023/03/07 04:47:38;;;;;;;41.30;21.77;;;-2.00;99.90;;;-2.31;79.89;98886.41;6276996;22;20165;-73
2023/03/07 04:50:08;;;;;;;43.20;22.10;;;-2.00;99.90;;;-2.31;80.15;98886.41;6276391;22;20234;-72
2023/03/07 04:52:38;;;;;;;42.13;22.53;;;-2.00;99.90;;;-2.29;80.39;98889.81;6276356;22;20243;-71
2023/03/07 04:55:07;;;;;;;56.83;22.83;;;-2.00;99.90;;;-2.27;80.19;98888.19;6276761;22;20184;-71
2023/03/07 04:57:35;;;;;;;47.07;23.07;;;-2.00;99.90;;;-2.27;80.48;98890.69;6277192;22;20243;-72
2023/03/07 05:00:08;;;;;;;49.83;25.10;;;-2.00;99.90;;;-2.28;80.00;98887.34;6277613;22;20176;-72
2023/03/07 05:02:36;;;;;;;51.13;25.30;;;-2.00;99.90;;;-2.30;80.79;98878.03;6278753;22;20165;-73
2023/03/07 05:05:06;;;;;;;72.03;25.77;;;-2.00;99.90;;;-2.27;80.38;98883.13;6278656;22;20201;-73
2023/03/07 05:07:34;;;;;;;57.43;25.93;;;-2.00;99.90;;;-2.26;80.27;98884.84;6278013;22;20172;-74
2023/03/07 05:10:06;;;;;;;58.20;27.27;;;-2.00;99.90;;;-2.25;80.30;98884.00;6277126;22;20176;-72
2023/03/07 05:12:34;;;;;;;60.30;27.07;;;-2.00;99.90;;;-2.21;80.58;98885.75;6276542;22;20239;-74
2023/03/07 05:15:04;;;;;;;57.30;26.17;;;-2.00;99.90;;;-2.21;80.20;98884.13;6275990;22;20512;-72
2023/03/07 05:17:32;;;;;;;57.03;25.90;;;-2.00;99.90;;;-2.14;80.34;98890.13;6276420;22;20175;-72
2023/03/07 05:20:01;;;;;;;54.00;25.90;;;-1.90;99.90;;;-2.13;80.45;98891.84;6276998;22;20177;-74
2023/03/07 05:22:29;;;;;;;61.67;24.17;;;-1.90;99.90;;;-2.13;80.35;98891.84;6276398;22;20486;-72
2023/03/07 05:24:58;;;;;;;54.40;25.53;;;-1.90;99.90;;;-2.13;79.84;98891.84;6276529;22;20692;-73
2023/03/07 05:27:28;;;;;;;43.00;20.77;;;-1.90;99.90;;;-2.14;79.98;98887.59;6276491;22;20173;-72
2023/03/07 05:29:56;;;;;;;50.57;23.23;;;-1.90;99.90;;;-2.16;79.92;98885.88;6276251;22;20219;-72
2023/03/07 05:32:25;;;;;;;45.50;24.00;;;-1.90;99.90;;;-2.21;79.56;98884.13;6276152;22;20249;-72
2023/03/07 05:34:54;;;;;;;41.90;20.53;;;-2.00;99.90;;;-2.25;79.09;98889.91;6276247;22;20177;-73
2023/03/07 05:37:22;;;;;;;44.53;22.03;;;-2.00;99.90;;;-2.29;79.83;98888.13;6276738;22;20226;-72
2023/03/07 05:39:51;;;;;;;37.97;20.23;;;-2.10;99.90;;;-2.30;80.37;98898.19;6276491;22;20195;-73
2023/03/07 05:42:20;;;;;;;42.90;21.20;;;-2.00;99.90;;;-2.29;79.93;98900.75;6249953;22;20168;-72
2023/03/07 05:44:50;;;;;;;41.90;22.00;;;-2.00;99.90;;;-2.30;79.87;98903.25;6276441;22;20177;-74
2023/03/07 05:47:18;;;;;;;43.43;21.53;;;-2.00;99.90;;;-2.32;79.73;98899.81;6276532;22;20172;-72
2023/03/07 05:49:47;;;;;;;45.50;22.80;;;-2.10;99.90;;;-2.35;79.76;98900.63;6277510;22;20207;-74
2023/03/07 05:52:16;;;;;;;45.37;22.70;;;-2.10;99.90;;;-2.37;79.89;98908.97;6277118;22;20250;-73
2023/03/07 05:54:44;;;;;;;52.80;24.50;;;-2.10;99.90;;;-2.39;79.94;98900.50;6276325;22;20628;-72
2023/03/07 05:57:12;;;;;;;49.43;23.47;;;-2.10;99.90;;;-2.46;80.03;98899.56;6276209;22;20230;-73
2023/03/07 05:59:41;;;;;;;43.00;22.83;;;-2.10;99.90;;;-2.51;80.75;98907.00;6276154;22;20204;-72
2023/03/07 06:02:11;;;;;;;50.83;23.27;;;-2.20;99.90;;;-2.51;80.66;98913.72;6276567;22;20499;-72
2023/03/07 06:04:39;;;;;;;41.27;22.43;;;-2.20;99.90;;;-2.49;80.83;98914.63;6275727;22;20208;-75
2023/03/07 06:07:08;;;;;;;46.03;24.47;;;-2.20;99.90;;;-2.48;81.02;98912.13;6276191;22;20180;-73
2023/03/07 06:09:37;;;;;;;40.70;23.63;;;-2.20;99.90;;;-2.46;80.77;98917.22;6275891;22;20238;-72
2023/03/07 06:12:05;;;;;;;46.77;23.67;;;-2.20;99.90;;;-2.43;80.57;98902.13;6276333;22;20196;-72
2023/03/07 06:14:34;;;;;;;44.53;23.93;;;-2.20;99.90;;;-2.38;81.15;98895.53;6276495;22;20540;-73
2023/03/07 06:17:04;;;;;;;39.27;22.33;;;-2.10;99.90;;;-2.32;80.47;98894.78;6275877;22;20184;-71
2023/03/07 06:19:34;;;;;;;46.90;23.33;;;-2.00;99.90;;;-2.24;80.44;98898.34;6276291;22;20172;-73
2023/03/07 06:22:03;;;;;;;40.03;22.57;;;-2.00;99.90;;;-2.19;80.49;98899.28;6276462;22;20230;-71
2023/03/07 06:24:31;;;;;;;40.70;23.07;;;-1.90;99.90;;;-2.09;80.46;98902.84;6275980;22;20555;-74
2023/03/07 06:27:00;;;;;;;44.20;23.67;;;-1.80;99.90;;;-1.99;79.77;98912.28;6276294;22;20550;-74
2023/03/07 06:29:28;;;;;;;47.83;24.53;;;-1.80;99.90;;;-1.91;79.92;98908.28;6275642;22;20196;-72
2023/03/07 06:31:56;;;;;;;44.77;23.60;;;-1.60;99.90;;;-1.83;79.14;98901.69;6275771;22;20197;-73
2023/03/07 06:34:26;;;;;;;43.60;25.03;;;-1.60;99.90;;;-1.73;79.50;98906.09;6275645;22;20173;-74
2023/03/07 06:36:56;;;;;;;47.63;25.27;;;-1.50;99.90;;;-1.61;79.04;98904.63;6276325;22;20201;-74
2023/03/07 06:39:25;;;;;;;45.13;25.53;;;-1.40;99.90;;;-1.55;78.50;98907.25;6276455;22;20172;-72
2023/03/07 06:41:57;;;;;;;40.77;23.33;;;-1.40;99.90;;;-1.55;77.57;98903.03;6275440;22;20621;-72
2023/03/07 06:44:26;;;;;;;45.50;24.80;;;-1.30;99.90;;;-1.49;77.57;98903.16;6277910;22;20214;-72
2023/03/07 06:46:54;;;;;;;45.53;25.47;;;-1.30;99.90;;;-1.41;77.84;98895.72;6250647;22;20185;-72
2023/03/07 06:49:24;;;;;;;45.07;25.23;;;-1.20;99.90;;;-1.25;77.32;98894.34;6278165;22;20180;-74
2023/03/07 06:51:53;;;;;;;46.37;24.90;;;-1.00;99.90;;;-1.10;77.17;98891.22;6277963;22;20560;-73
2023/03/07 06:54:23;;;;;;;40.50;23.53;;;-0.80;99.90;;;-0.98;77.01;98891.41;6278148;22;20610;-73
2023/03/07 06:56:51;;;;;;;39.60;21.17;;;-0.70;99.90;;;-0.94;76.12;98892.28;6278177;22;20215;-73
2023/03/07 06:59:20;;;;;;;41.50;22.57;;;-0.60;99.90;;;-0.86;75.48;98885.66;6278265;22;20195;-72
2023/03/07 07:01:49;;;;;;;35.53;17.83;;;-0.60;99.90;;;-0.90;74.44;98884.78;6278535;22;20626;-75
2023/03/07 07:04:17;;;;;;;35.80;19.43;;;-0.70;99.90;;;-0.90;74.24;98881.41;6278906;22;20199;-72
2023/03/07 07:06:46;;;;;;;35.03;19.50;;;-0.60;99.90;;;-0.84;74.26;98881.50;6278639;22;20234;-73
2023/03/07 07:09:14;;;;;;;35.20;19.27;;;-0.50;99.90;;;-0.75;73.92;98879.09;6278388;22;20176;-74
2023/03/07 07:11:44;;;;;;;32.00;18.53;;;-0.40;99.90;;;-0.58;73.85;98877.66;6251931;22;20173;-73
2023/03/07 07:14:13;;;;;;;35.83;19.43;;;-0.30;99.90;;;-0.38;73.93;98874.56;6278553;22;20226;-73
2023/03/07 07:16:41;;;;;;;36.93;19.13;;;0.00;99.90;;;-0.17;73.35;98868.94;6278561;22;20230;-72
2023/03/07 07:19:10;;;;;;;35.57;20.53;;;0.20;99.90;;;-0.02;72.47;98866.56;6278506;22;20172;-74
2023/03/07 07:21:38;;;;;;;38.03;21.03;;;0.30;99.90;;;0.07;71.86;98861.59;6278703;22;20486;-73
2023/03/07 07:24:07;;;;;;;36.23;20.13;;;0.40;99.90;;;0.15;71.29;98859.19;6278376;22;20173;-75
2023/03/07 07:26:36;;;;;;;36.73;20.00;;;0.50;99.90;;;0.27;70.82;98861.00;6278276;22;20250;-73
2023/03/07 07:29:06;;;;;;;35.07;19.97;;;0.60;99.90;;;0.53;70.61;98858.72;6277539;22;20200;-72
2023/03/07 07:31:34;;;;;;;38.50;19.87;;;0.80;99.90;;;0.80;69.84;98853.88;6278035;22;20630;-73
2023/03/07 07:34:03;;;;;;;34.37;18.50;;;1.10;99.90;;;1.07;69.00;98849.84;6277801;22;20196;-75
2023/03/07 07:36:33;;;;;;;30.43;17.80;;;1.40;99.90;;;1.29;68.23;98836.50;6278601;22;20626;-74
2023/03/07 07:39:04;;;;;;;36.03;19.67;;;1.50;99.90;;;1.39;67.75;98839.91;6278059;22;20184;-73
2023/03/07 07:41:33;;;;;;;31.37;18.33;;;1.70;99.90;;;1.45;66.84;98839.97;6277478;22;20235;-74
2023/03/07 07:44:02;;;;;;;30.53;17.70;;;1.80;99.90;;;1.42;66.18;98839.94;6278368;22;20531;-72
2023/03/07 07:46:32;;;;;;;29.87;17.53;;;1.70;99.90;;;1.34;65.16;98832.28;6277667;22;20180;-74
2023/03/07 07:49:01;;;;;;;29.17;17.70;;;1.60;99.90;;;1.52;65.67;98835.78;6277686;22;20180;-73
2023/03/07 07:51:30;;;;;;;31.70;17.20;;;1.80;99.90;;;1.87;65.07;98835.91;6277509;22;20259;-71
2023/03/07 07:53:59;;;;;;;28.87;17.87;;;2.10;99.90;;;2.10;65.18;98839.41;6276788;22;20200;-73
2023/03/07 07:56:27;;;;;;;30.63;17.30;;;2.40;99.90;;;2.20;63.37;98827.53;6277524;22;20214;-73
2023/03/07 07:58:56;;;;;;;28.17;15.83;;;2.50;99.90;;;2.32;62.76;98827.59;6250316;22;20606;-74
2023/03/07 08:01:25;;;;;;;28.83;16.90;;;2.60;99.90;;;2.37;62.55;98825.91;6278044;22;20176;-72
2023/03/07 08:03:55;;;;;;;27.53;16.97;;;2.70;99.90;;;2.38;62.14;98819.97;6277007;22;20196;-74
2023/03/07 08:06:26;;;;;;;26.37;16.53;;;2.70;99.90;;;2.40;62.28;98830.16;6276897;22;20197;-74
2023/03/07 08:08:55;;;;;;;33.73;18.60;;;2.80;99.90;;;2.47;62.41;98810.63;6277797;22;20161;-75
2023/03/07 08:11:24;;;;;;;29.83;16.67;;;2.90;99.90;;;2.61;62.59;98814.03;6278239;22;20214;-66
2023/03/07 08:13:53;;;;;;;30.00;16.87;;;3.00;99.90;;;2.72;60.66;98812.34;6280161;22;20197;-66
2023/03/07 08:16:23;;;;;;;25.53;15.77;;;3.00;99.90;;;2.84;60.27;98812.38;6280708;22;20169;-68
2023/03/07 08:18:57;;;;;;;26.63;15.47;;;3.10;99.90;;;3.04;60.19;98801.31;6280379;22;20243;-66
2023/03/07 08:21:26;;;;;;;24.43;14.90;;;3.30;99.90;;;3.20;59.76;98810.63;6280480;22;20160;-67
2023/03/07 08:23:56;;;;;;;25.13;14.17;;;3.50;99.90;;;3.31;58.57;98803.78;6281641;22;20249;-67
2023/03/07 08:26:25;;;;;;;22.57;13.93;;;3.70;99.90;;;3.40;57.71;98800.41;6280775;22;20172;-66
2023/03/07 08:28:54;;;;;;;25.30;14.00;;;3.70;99.90;;;3.52;56.91;98796.97;6281373;22;20510;-67
2023/03/07 08:31:24;;;;;;;26.50;15.13;;;3.80;99.90;;;3.69;57.20;98794.38;6280507;22;20173;-66
2023/03/07 08:33:54;;;;;;;24.17;15.10;;;4.10;99.90;;;3.94;57.12;98795.06;6280171;22;20181;-67
2023/03/07 08:36:23;;;;;;;21.57;13.97;;;4.30;99.90;;;4.14;56.48;98778.00;6280306;22;20172;-65
2023/03/07 08:38:52;;;;;;;22.27;13.80;;;4.50;99.90;;;4.32;55.02;98787.22;6281089;22;20248;-66
2023/03/07 08:41:22;;;;;;;20.43;13.27;;;4.60;99.90;;;4.45;54.68;98782.88;6280383;22;20173;-67
2023/03/07 08:43:51;;;;;;;19.47;12.27;;;4.80;99.90;;;4.65;53.82;98775.09;6280774;22;20161;-69
2023/03/07 08:46:19;;;;;;;17.17;11.97;;;4.90;99.90;;;4.78;53.72;98772.41;6280274;22;20618;-67
2023/03/07 08:48:48;;;;;;;18.13;11.37;;;5.10;99.90;;;4.93;52.75;98773.13;6280218;22;20226;-66
2023/03/07 08:51:18;;;;;;;18.97;11.60;;;5.20;99.90;;;4.97;52.22;98767.13;6279993;22;20206;-67
2023/03/07 08:53:47;;;;;;;17.73;11.67;;;5.20;99.90;;;5.08;52.27;98763.63;6279748;22;20211;-67
2023/03/07 08:56:19;;;;;;;16.23;11.33;;;5.40;99.90;;;5.24;51.74;98766.88;6280119;22;20222;-68
2023/03/07 08:58:47;;;;;;;19.33;12.60;;;5.60;99.90;;;5.42;51.72;98759.88;6279128;22;20153;-67
2023/03/07 09:01:15;;;;;;;19.63;12.53;;;5.80;99.90;;;5.70;50.94;98765.47;6279399;22;20238;-66
2023/03/07 09:03:44;;;;;;;17.57;12.13;;;6.00;99.90;;;5.97;50.57;98754.94;6280083;22;20172;-67
2023/03/07 09:06:19;;;;;;;18.97;12.60;;;6.20;99.90;;;6.36;50.44;98751.81;6278979;22;20200;-67
2023/03/07 09:08:49;;;;;;;20.87;13.10;;;6.60;99.90;;;6.63;49.86;98750.50;6279833;22;20214;-67
2023/03/07 09:11:20;;;;;;;18.50;12.23;;;6.90;99.90;;;6.86;48.88;98756.09;6279613;22;20173;-66
2023/03/07 09:13:48;;;;;;;21.37;13.33;;;7.10;99.90;;;7.10;49.01;98753.97;6253123;22;20184;-66
2023/03/07 09:16:20;;;;;;;21.10;13.23;;;7.20;99.90;;;7.26;48.11;98750.28;6279888;22;20248;-67
2023/03/07 09:18:49;;;;;;;21.43;13.43;;;7.40;99.90;;;7.79;49.38;98737.25;6279763;22;20660;-67
2023/03/07 09:21:19;;;;;;;19.97;13.07;;;8.00;99.90;;;8.24;46.90;98741.34;6279531;22;20649;-66
2023/03/07 09:23:47;;;;;;;18.73;12.67;;;8.20;99.90;;;8.98;45.99;98738.72;6279155;22;20165;-68
2023/03/07 09:26:16;;;;;;;19.33;13.63;;;8.90;99.90;;;9.33;44.36;98735.22;6279679;22;20180;-67
2023/03/07 09:28:45;;;;;;;18.37;13.20;;;9.20;99.90;;;9.19;44.03;98733.03;6279155;22;20579;-67
2023/03/07 09:31:17;;;;;;;18.00;13.87;;;9.10;98.60;;;9.11;44.61;98734.97;6280272;22;20248;-67
2023/03/07 09:33:46;;;;;;;20.93;13.60;;;9.20;99.40;;;10.06;43.97;98727.94;6278616;22;20185;-66
2023/03/07 09:36:16;;;;;;;17.03;13.20;;;10.10;99.00;;;10.53;42.55;98730.78;6279705;22;20226;-67
2023/03/07 09:38:47;;;;;;;19.63;14.23;;;10.40;94.70;;;10.67;41.73;98719.16;6279517;22;20165;-66
2023/03/07 09:41:42;;;;;;;18.67;13.57;;;10.50;94.00;;;10.47;39.88;98723.25;6278957;22;20161;-68
2023/03/07 09:44:23;;;;;;;20.97;14.87;;;10.20;91.00;;;10.06;40.18;98716.81;6280313;22;20161;-66
2023/03/07 09:47:10;;;;;;;23.37;15.80;;;9.80;91.40;;;9.46;42.15;98721.13;6279210;22;20176;-68
2023/03/07 09:49:46;;;;;;;19.87;14.67;;;9.40;93.10;;;9.35;42.81;98718.00;6278999;22;20222;-67
2023/03/07 09:52:18;;;;;;;22.53;15.27;;;9.30;94.40;;;9.15;43.41;98709.13;6279940;22;20616;-68
2023/03/07 09:54:55;;;;;;;22.60;15.87;;;9.20;94.40;;;9.27;45.01;98709.69;6279936;22;20191;-68
2023/03/07 09:57:28;;;;;;;21.87;14.37;;;9.20;95.70;;;10.19;42.15;98712.09;6279031;22;20168;-68
2023/03/07 10:00:04;;;;;;;21.50;14.67;;;9.80;95.00;;;10.41;41.08;98697.69;6279488;22;20165;-66
2023/03/07 10:02:39;;;;;;;21.67;15.53;;;10.00;92.00;;;11.52;45.20;98687.78;6279856;22;20211;-67
2023/03/07 10:05:22;;;;;;;23.50;15.17;;;11.30;97.50;;;13.84;36.30;98685.91;6279156;22;20203;-67
2023/03/07 10:07:51;;;;;;;22.83;16.10;;;12.90;89.80;;;14.88;34.25;98681.72;6279460;22;20164;-67
2023/03/07 10:10:26;;;;;;;21.83;15.50;;;13.80;82.10;;;14.61;33.79;98677.91;6279711;22;20254;-68
2023/03/07 10:13:18;;;;;;;20.93;15.93;;;13.90;79.80;;;14.63;33.14;98668.31;6279540;22;20160;-69
2023/03/07 10:15:51;;;;;;;23.40;16.43;;;14.00;75.50;;;14.30;33.44;98674.22;6278737;22;20168;-67
2023/03/07 10:18:35;;;;;;;21.17;16.37;;;13.80;73.10;;;13.22;34.66;98660.22;6279030;22;20164;-66
2023/03/07 10:21:14;;;;;;;24.97;17.00;;;13.00;74.40;;;12.03;36.82;98671.25;6279132;22;20166;-66
2023/03/07 10:24:10;;;;;;;26.07;17.77;;;12.00;75.60;;;10.64;39.79;98659.16;6280292;22;20235;-67